Saint Paul, MN

12:20 CST le 07 décembre 2016 (GMT -0600)
Mounds Park, East Metro | | Change Station

Alt. 850 ft 44.95 °N, 93.06 °W | Updated 28 seconds ago

Light Snow
Neige légère
19.9 ° F
Paraît 11 ° F
N
7.2
Vent Variable Vent de Ouest
Gusts 9.8 mph

Aujourd'hui
Haut(e) -- | Bas -- ° F
--% Risque de précip.
Hier
Haut(e) -- | Bas -- ° F
Precip. -- pouce
Pression 30.09 pouce
Visibilité 5.0 Miles terrestres
Nuages Couvert 2600 ft
Refroidissement éolien 11 ° F
Point de rosée 6 ° F
Humidité 54%
Précipitations 0.00 pouce
Profondeur de la couche neigeuse Non disponible.
7:37 AM 4:30 PM
Premier quartier, 54% visible
METAR KSTP 071753Z 27015G25KT 5SM -SN OVC026 M07/M12 A3005 RMK AO2 PK WND 26026/1723 SLP187 P0000 60000 T10671117 11067 21083 50011
Pression 30.09 pouce
Visibilité 5.0 Miles terrestres
Nuages Couvert 2600 ft
Refroidissement éolien 11 ° F
Point de rosée 6 ° F
Humidité 54%
Précipitations 0.00 pouce
Profondeur de la couche neigeuse Non disponible.
7:37 AM 4:30 PM
Premier quartier, 54% visible
METAR KSTP 071753Z 27015G25KT 5SM -SN OVC026 M07/M12 A3005 RMK AO2 PK WND 26026/1723 SLP187 P0000 60000 T10671117 11067 21083 50011

10-Day Weather Forecast

Almanac

Astronomie

Dec. 07, 2016 Lever Coucher
Temps réel
Crépuscule civil
Crépuscule nautique
Crépuscule astronomique
Lune
Durée de lumière visible
Longueur du jour
Tomorrow will be .
, % of the Moon is Illuminated

Extrêmes aujourd'hui

State Highs State Lows

Community

WunderPhotos

Upload Photos

1,956,157 Photos téléchargées !

WunderBlog® & News

Nearby

Qualité de l'air

  Qualité de l'air Indice de la qualité de l'air Polluant
Not available.

Épaisseur de neige

Station Depth Altitude

Activité sismique

Ville Distance Mag. Time & Date
Minimum magnitude displayed is 2.5.

Températures des eaux côtières

Lieu Température

Stations

Stations météo à proximité

Emplacement de la station Température Refroidissement éolien Point de rosée Humidité Vent Precip. Alt. Mise à jour Type
                   

Watches & Warnings

There are currently no watches in effect.